QFA123 RJFF-ZSPD
Flight info
| Callsign | QFA123 |
|---|---|
| Flight time | N/A |
| Altitude | 38000 |
| Route | SGE OLE V40 FUE Y60 POTET Y592 ONIKU A593 LAMEN/K0835F280 A593 AKARA/K0830S0840 A593 PUD |
| Aircraft | B772/H-SDE2E3FGHIJ5LORVWXY/LB1D1 |
Departure
| Time | 2026-05-07 14:36 |
|---|---|
| Airport | Fukuoka Airport (RJFF) |
Arrival
| Time | N/A |
|---|---|
| Airport | Shanghai Pudong International Airport (ZSPD) |
| Time | Latitude | Longitude | Altitude | Speed | Heading |
|---|---|---|---|---|---|
| 2026-05-07 13:53 | 33.58379 | 130.44647 | 49 ft | 0 kts | 240° |
| 2026-05-07 14:19 | 33.58385 | 130.44661 | 50 ft | 2 kts | 240° |
| 2026-05-07 14:19 | 33.58393 | 130.44676 | 50 ft | 2 kts | 240° |
| 2026-05-07 14:19 | 33.58398 | 130.44688 | 50 ft | 0 kts | 240° |
| 2026-05-07 14:20 | 33.58405 | 130.44702 | 50 ft | 2 kts | 232° |
| 2026-05-07 14:20 | 33.58415 | 130.44714 | 50 ft | 2 kts | 221° |
| 2026-05-07 14:20 | 33.58427 | 130.44725 | 50 ft | 2 kts | 211° |
| 2026-05-07 14:20 | 33.58440 | 130.44734 | 50 ft | 2 kts | 201° |
| 2026-05-07 14:21 | 33.58454 | 130.44739 | 50 ft | 2 kts | 192° |
| 2026-05-07 14:21 | 33.58469 | 130.44742 | 49 ft | 2 kts | 181° |
| 2026-05-07 14:21 | 33.58484 | 130.44740 | 50 ft | 2 kts | 172° |
| 2026-05-07 14:21 | 33.58499 | 130.44737 | 50 ft | 2 kts | 161° |
| 2026-05-07 14:22 | 33.58512 | 130.44730 | 50 ft | 1 kts | 151° |
| 2026-05-07 14:22 | 33.58516 | 130.44728 | 50 ft | 0 kts | 149° |
| 2026-05-07 14:24 | 33.58500 | 130.44739 | 49 ft | 5 kts | 152° |
| 2026-05-07 14:24 | 33.58452 | 130.44769 | 49 ft | 10 kts | 150° |
| 2026-05-07 14:24 | 33.58378 | 130.44820 | 49 ft | 14 kts | 150° |
| 2026-05-07 14:25 | 33.58280 | 130.44887 | 49 ft | 18 kts | 150° |
| 2026-05-07 14:25 | 33.58159 | 130.44968 | 49 ft | 21 kts | 149° |
| 2026-05-07 14:25 | 33.58021 | 130.45062 | 49 ft | 24 kts | 149° |
| 2026-05-07 14:25 | 33.57864 | 130.45169 | 49 ft | 27 kts | 151° |
| 2026-05-07 14:26 | 33.57728 | 130.45264 | 49 ft | 23 kts | 149° |
| 2026-05-07 14:26 | 33.57632 | 130.45328 | 49 ft | 0 kts | 150° |
| 2026-05-07 14:26 | 33.57628 | 130.45332 | 49 ft | 2 kts | 133° |
| 2026-05-07 14:26 | 33.57624 | 130.45349 | 49 ft | 0 kts | 91° |
| 2026-05-07 14:33 | 33.57624 | 130.45360 | 49 ft | 3 kts | 84° |
| 2026-05-07 14:33 | 33.57642 | 130.45404 | 49 ft | 8 kts | 46° |
| 2026-05-07 14:33 | 33.57706 | 130.45410 | 49 ft | 0 kts | 333° |
| 2026-05-07 14:35 | 33.57711 | 130.45407 | 49 ft | 2 kts | 332° |
| 2026-05-07 14:35 | 33.57722 | 130.45401 | 49 ft | 4 kts | 330° |
| 2026-05-07 14:35 | 33.57841 | 130.45320 | 49 ft | 63 kts | 330° |
| 2026-05-07 14:35 | 33.58568 | 130.44820 | 93 ft | 168 kts | 330° |
| 2026-05-07 14:36 | 33.59635 | 130.44142 | 1161 ft | 181 kts | 333° |
| 2026-05-07 14:36 | 33.60728 | 130.43480 | 2233 ft | 178 kts | 327° |
| 2026-05-07 14:36 | 33.61834 | 130.42709 | 2778 ft | 195 kts | 326° |
| 2026-05-07 14:36 | 33.63068 | 130.41885 | 3469 ft | 212 kts | 335° |
| 2026-05-07 14:37 | 33.64572 | 130.41527 | 4219 ft | 232 kts | 358° |
| 2026-05-07 14:37 | 33.67565 | 130.43335 | 5627 ft | 270 kts | 53° |
| 2026-05-07 14:37 | 33.68503 | 130.45364 | 6325 ft | 286 kts | 69° |
| 2026-05-07 14:38 | 33.68807 | 130.47742 | 7100 ft | 295 kts | 97° |
| 2026-05-07 14:38 | 33.68184 | 130.50055 | 7982 ft | 295 kts | 124° |
| 2026-05-07 14:38 | 33.66789 | 130.51810 | 8839 ft | 294 kts | 149° |
| 2026-05-07 14:38 | 33.65044 | 130.53098 | 9622 ft | 298 kts | 155° |
| 2026-05-07 14:39 | 33.63181 | 130.54204 | 9930 ft | 299 kts | 161° |
| 2026-05-07 14:39 | 33.61259 | 130.55158 | 9967 ft | 305 kts | 162° |
| 2026-05-07 14:39 | 33.59132 | 130.56194 | 9968 ft | 343 kts | 162° |
| 2026-05-07 14:39 | 33.56818 | 130.57341 | 9968 ft | 370 kts | 161° |
| 2026-05-07 14:40 | 33.54421 | 130.58543 | 9970 ft | 376 kts | 161° |
| 2026-05-07 14:40 | 33.52016 | 130.59753 | 9973 ft | 376 kts | 161° |
| 2026-05-07 14:40 | 33.49606 | 130.60963 | 9976 ft | 377 kts | 161° |
| 2026-05-07 14:40 | 33.47125 | 130.61908 | 9971 ft | 373 kts | 171° |
| 2026-05-07 14:41 | 33.44511 | 130.62288 | 9964 ft | 370 kts | 182° |
| 2026-05-07 14:41 | 33.41985 | 130.62094 | 9972 ft | 365 kts | 192° |
| 2026-05-07 14:41 | 33.39503 | 130.61346 | 9973 ft | 362 kts | 202° |
| 2026-05-07 14:41 | 33.37175 | 130.60196 | 9977 ft | 359 kts | 210° |
| 2026-05-07 14:42 | 33.35081 | 130.58614 | 9976 ft | 355 kts | 220° |
| 2026-05-07 14:42 | 33.33279 | 130.56612 | 9977 ft | 354 kts | 230° |
| 2026-05-07 14:42 | 33.31713 | 130.54332 | 9976 ft | 355 kts | 233° |
| 2026-05-07 14:42 | 33.30137 | 130.51959 | 10568 ft | 366 kts | 233° |
| 2026-05-07 14:43 | 33.28582 | 130.49629 | 11743 ft | 359 kts | 233° |
| 2026-05-07 14:43 | 33.27047 | 130.47337 | 12817 ft | 356 kts | 232° |
| 2026-05-07 14:43 | 33.25495 | 130.45027 | 13740 ft | 360 kts | 232° |
| 2026-05-07 14:43 | 33.23929 | 130.42697 | 14624 ft | 365 kts | 232° |
| 2026-05-07 14:44 | 33.22346 | 130.40347 | 15624 ft | 368 kts | 232° |
| 2026-05-07 14:44 | 33.20742 | 130.37968 | 16662 ft | 369 kts | 232° |
| 2026-05-07 14:44 | 33.19140 | 130.35594 | 17643 ft | 371 kts | 232° |
| 2026-05-07 14:44 | 33.17516 | 130.33179 | 18525 ft | 375 kts | 232° |
| 2026-05-07 14:45 | 33.15870 | 130.30734 | 19262 ft | 383 kts | 233° |
| 2026-05-07 14:45 | 33.14183 | 130.28230 | 19823 ft | 391 kts | 233° |
| 2026-05-07 14:45 | 33.12512 | 130.25653 | 19949 ft | 392 kts | 234° |
| 2026-05-07 14:45 | 33.10867 | 130.23099 | 19960 ft | 392 kts | 234° |
| 2026-05-07 14:46 | 33.09197 | 130.20512 | 19964 ft | 391 kts | 234° |
| 2026-05-07 14:46 | 33.07519 | 130.17917 | 19963 ft | 393 kts | 234° |
| 2026-05-07 14:46 | 33.05848 | 130.15335 | 19964 ft | 393 kts | 234° |
| 2026-05-07 14:46 | 33.04173 | 130.12749 | 20073 ft | 405 kts | 234° |
| 2026-05-07 14:47 | 33.02442 | 130.10078 | 20952 ft | 407 kts | 234° |
| 2026-05-07 14:47 | 33.00716 | 130.07420 | 22011 ft | 403 kts | 234° |
| 2026-05-07 14:47 | 32.99010 | 130.04794 | 22809 ft | 406 kts | 234° |
| 2026-05-07 14:47 | 32.97275 | 130.02124 | 23432 ft | 414 kts | 234° |
| 2026-05-07 14:48 | 32.95500 | 129.99396 | 24084 ft | 420 kts | 234° |
| 2026-05-07 14:48 | 32.93741 | 129.96695 | 24900 ft | 422 kts | 234° |
| 2026-05-07 14:48 | 32.92023 | 129.93858 | 25736 ft | 422 kts | 239° |
| 2026-05-07 14:48 | 32.90647 | 129.90787 | 26406 ft | 426 kts | 247° |
| 2026-05-07 14:49 | 32.89641 | 129.87462 | 27065 ft | 430 kts | 254° |
| 2026-05-07 14:49 | 32.88883 | 129.84015 | 27749 ft | 434 kts | 256° |
| 2026-05-07 14:49 | 32.88133 | 129.80501 | 28417 ft | 437 kts | 256° |
| 2026-05-07 14:49 | 32.87389 | 129.77013 | 29026 ft | 442 kts | 255° |
| 2026-05-07 14:50 | 32.86631 | 129.73463 | 29752 ft | 444 kts | 256° |
| 2026-05-07 14:50 | 32.85871 | 129.69916 | 30606 ft | 443 kts | 256° |
| 2026-05-07 14:50 | 32.85118 | 129.66406 | 31637 ft | 437 kts | 256° |
| 2026-05-07 14:50 | 32.84376 | 129.62959 | 32601 ft | 433 kts | 256° |
| 2026-05-07 14:51 | 32.83625 | 129.59459 | 33525 ft | 431 kts | 257° |
| 2026-05-07 14:51 | 32.82899 | 129.56073 | 34474 ft | 428 kts | 256° |
| 2026-05-07 14:51 | 32.82171 | 129.52686 | 35516 ft | 423 kts | 256° |
| 2026-05-07 14:51 | 32.81447 | 129.49321 | 36547 ft | 417 kts | 256° |
| 2026-05-07 14:52 | 32.80736 | 129.46022 | 37487 ft | 411 kts | 257° |
| 2026-05-07 14:52 | 32.80023 | 129.42719 | 37937 ft | 413 kts | 257° |
| 2026-05-07 14:52 | 32.78699 | 129.36592 | 37953 ft | 411 kts | 257° |
| 2026-05-07 14:53 | 32.77271 | 129.30006 | 37958 ft | 411 kts | 256° |
| 2026-05-07 14:53 | 32.75847 | 129.23471 | 37954 ft | 410 kts | 256° |
| 2026-05-07 14:54 | 32.74422 | 129.16948 | 37957 ft | 410 kts | 257° |
| 2026-05-07 14:54 | 32.72989 | 129.10405 | 37951 ft | 409 kts | 257° |
| 2026-05-07 14:55 | 32.71553 | 129.03867 | 37961 ft | 409 kts | 256° |
| 2026-05-07 14:55 | 32.70133 | 128.97415 | 37962 ft | 408 kts | 256° |
| 2026-05-07 14:56 | 32.69125 | 128.92850 | 37944 ft | 409 kts | 256° |
| 2026-05-07 14:56 | 32.68584 | 128.90401 | 37957 ft | 408 kts | 256° |
| 2026-05-07 14:57 | 32.66108 | 128.79089 | 37953 ft | 406 kts | 257° |
| 2026-05-07 14:57 | 32.63068 | 128.64594 | 37950 ft | 409 kts | 257° |